createdAt,value
2023-02-20T00:02:16.032Z,0.68
2023-02-20T00:04:44.231Z,1.02
2023-02-20T00:07:12.440Z,0.88
2023-02-20T00:09:40.543Z,1.10
2023-02-20T00:12:08.929Z,1.30
2023-02-20T00:14:37.089Z,0.77
2023-02-20T00:17:06.610Z,0.80
2023-02-20T00:19:34.742Z,0.93
2023-02-20T00:22:02.931Z,0.75
2023-02-20T00:24:31.039Z,1.20
2023-02-20T00:26:59.190Z,1.25
2023-02-20T00:29:27.310Z,0.93
2023-02-20T00:31:57.217Z,0.88
2023-02-20T00:34:29.496Z,1.10
2023-02-20T00:36:57.773Z,0.82
2023-02-20T00:39:25.915Z,0.60
2023-02-20T00:41:55.922Z,0.73
2023-02-20T00:44:24.018Z,0.70
2023-02-20T00:46:52.476Z,0.60
2023-02-20T00:49:20.640Z,0.98
2023-02-20T00:51:50.625Z,0.85
2023-02-20T00:54:18.986Z,1.00
2023-02-20T00:56:47.251Z,0.85
2023-02-20T00:59:15.439Z,0.68
2023-02-20T01:01:43.675Z,0.60
2023-02-20T01:04:12.090Z,0.50
2023-02-20T01:06:43.281Z,0.93
2023-02-20T01:09:15.022Z,1.05
2023-02-20T01:11:44.263Z,0.80
2023-02-20T01:14:13.563Z,0.80
2023-02-20T01:16:45.651Z,0.70
2023-02-20T01:19:14.301Z,0.50
2023-02-20T01:21:42.603Z,0.70
2023-02-20T01:24:14.140Z,1.13
2023-02-20T01:26:42.672Z,0.63
2023-02-20T01:29:10.763Z,0.55
2023-02-20T01:31:39.206Z,0.40
2023-02-20T01:34:10.448Z,0.45
2023-02-20T01:36:38.729Z,0.43
2023-02-20T01:39:06.834Z,0.82
2023-02-20T01:41:36.334Z,0.40
2023-02-20T01:44:04.477Z,0.50
2023-02-20T01:46:52.917Z,0.60
2023-02-20T01:49:29.135Z,0.50
2023-02-20T01:52:04.176Z,0.73
2023-02-20T01:54:33.276Z,0.75
2023-02-20T01:57:05.782Z,0.70
2023-02-20T01:59:38.766Z,0.52
2023-02-20T02:02:08.302Z,0.65
2023-02-20T02:04:38.307Z,0.40
2023-02-20T02:07:07.110Z,0.50
2023-02-20T02:09:43.742Z,0.60
2023-02-20T02:12:13.864Z,0.50
2023-02-20T02:14:42.034Z,0.60
2023-02-20T02:17:29.671Z,0.50
2023-02-20T02:20:22.827Z,0.68
2023-02-20T02:23:21.349Z,0.65
2023-02-20T02:25:57.573Z,0.60
2023-02-20T02:29:00.789Z,0.85
2023-02-20T02:32:04.351Z,0.50
2023-02-20T02:35:06.481Z,0.57
2023-02-20T02:37:43.532Z,0.60
2023-02-20T02:40:17.985Z,1.05
2023-02-20T02:42:52.466Z,0.55
2023-02-20T02:45:27.237Z,0.43
2023-02-20T02:48:01.767Z,0.40
2023-02-20T02:50:36.752Z,0.50
2023-02-20T02:53:09.535Z,0.50
2023-02-20T02:55:38.403Z,0.40
2023-02-20T02:58:06.825Z,0.50
2023-02-20T03:00:39.340Z,0.30
2023-02-20T03:03:11.975Z,0.55
2023-02-20T03:05:46.500Z,0.32
2023-02-20T03:08:30.926Z,0.40
2023-02-20T03:11:02.920Z,0.45
2023-02-20T03:13:53.160Z,0.45
2023-02-20T03:16:27.540Z,0.40
2023-02-20T03:18:59.905Z,0.75
2023-02-20T03:21:58.028Z,0.65
2023-02-20T03:24:31.019Z,0.90
2023-02-20T03:27:00.506Z,1.20
2023-02-20T03:29:33.695Z,1.17
2023-02-20T03:32:24.396Z,0.73
2023-02-20T03:35:13.715Z,0.63
2023-02-20T03:38:01.583Z,1.02
2023-02-20T03:40:49.670Z,1.05
2023-02-20T03:43:25.589Z,1.05
2023-02-20T03:46:02.608Z,0.90
2023-02-20T03:48:37.883Z,0.68
2023-02-20T03:51:06.546Z,1.30
2023-02-20T03:53:45.429Z,0.90
2023-02-20T03:56:20.634Z,0.85
2023-02-20T03:58:53.286Z,0.50
2023-02-20T04:01:24.744Z,1.23
2023-02-20T04:03:55.534Z,0.80
2023-02-20T04:06:26.737Z,1.15
2023-02-20T04:09:01.919Z,1.17
2023-02-20T04:11:35.975Z,0.82
2023-02-20T04:14:05.027Z,0.70
2023-02-20T04:16:38.746Z,1.17
2023-02-20T04:19:07.077Z,0.65
2023-02-20T04:21:42.082Z,1.30
2023-02-20T04:24:17.236Z,1.15
2023-02-20T04:26:47.932Z,1.13
2023-02-20T04:29:16.105Z,1.05
2023-02-20T04:31:44.373Z,1.27
2023-02-20T04:34:13.610Z,1.35
2023-02-20T04:36:42.116Z,1.60
2023-02-20T04:39:10.288Z,1.20
2023-02-20T04:41:38.731Z,1.10
2023-02-20T04:44:25.345Z,1.65
2023-02-20T04:46:56.166Z,0.98
2023-02-20T04:49:24.394Z,0.68
2023-02-20T04:51:55.816Z,0.80
2023-02-20T04:54:24.118Z,0.63
2023-02-20T04:56:53.400Z,1.27
2023-02-20T04:59:23.965Z,0.75
2023-02-20T05:01:54.852Z,0.90
2023-02-20T05:04:23.563Z,0.93
2023-02-20T05:06:53.930Z,0.55
2023-02-20T05:09:23.295Z,1.02
2023-02-20T05:11:51.627Z,0.68
2023-02-20T05:14:20.743Z,0.60
2023-02-20T05:16:54.345Z,1.15
2023-02-20T05:19:22.774Z,1.05
2023-02-20T05:22:10.393Z,1.30
2023-02-20T05:24:38.613Z,0.77
2023-02-20T05:27:06.747Z,0.85
2023-02-20T05:29:34.894Z,0.55
2023-02-20T05:32:04.467Z,0.55
2023-02-20T05:34:32.607Z,0.63
2023-02-20T05:37:00.632Z,0.60
2023-02-20T05:39:28.762Z,0.85
2023-02-20T05:41:57.153Z,0.70
2023-02-20T05:44:25.491Z,0.60
2023-02-20T05:46:54.304Z,0.38
2023-02-20T05:49:24.318Z,0.55
2023-02-20T05:51:53.071Z,0.65
2023-02-20T05:54:21.794Z,0.82
2023-02-20T05:56:50.538Z,0.40
2023-02-20T05:59:20.746Z,0.32
2023-02-20T06:01:52.599Z,0.57
2023-02-20T06:04:20.890Z,0.57
2023-02-20T06:06:50.344Z,0.40
2023-02-20T06:09:18.698Z,0.60
2023-02-20T06:11:50.973Z,0.73
2023-02-20T06:14:20.109Z,0.20
2023-02-20T06:16:48.374Z,0.65
2023-02-20T06:19:22.335Z,0.68
2023-02-20T06:21:53.683Z,0.70
2023-02-20T06:24:22.779Z,0.47
2023-02-20T06:26:52.208Z,0.40
2023-02-20T06:29:20.662Z,0.50
2023-02-20T06:31:49.114Z,0.40
2023-02-20T06:34:18.439Z,0.60
2023-02-20T06:36:46.882Z,0.35
2023-02-20T06:39:16.509Z,0.50
2023-02-20T06:41:45.306Z,0.52
2023-02-20T06:44:13.358Z,0.45
2023-02-20T06:46:41.560Z,0.60
2023-02-20T06:49:10.845Z,0.63
2023-02-20T06:51:40.332Z,0.57
2023-02-20T06:54:09.568Z,0.40
2023-02-20T06:56:39.059Z,1.05
2023-02-20T06:59:09.217Z,1.00
2023-02-20T07:01:41.516Z,0.77
2023-02-20T07:04:16.646Z,0.73
2023-02-20T07:06:44.800Z,1.05
2023-02-20T07:09:12.911Z,0.90
2023-02-20T07:11:42.831Z,1.25
2023-02-20T07:14:11.125Z,1.42
2023-02-20T07:16:39.256Z,0.85
2023-02-20T07:19:07.326Z,1.48
2023-02-20T07:21:35.539Z,0.85
2023-02-20T07:24:03.672Z,1.27
2023-02-20T07:26:32.714Z,1.02
2023-02-20T07:29:02.201Z,0.88
2023-02-20T07:31:30.739Z,1.10
2023-02-20T07:33:59.273Z,1.23
2023-02-20T07:36:27.624Z,1.42
2023-02-20T07:38:57.400Z,1.02
2023-02-20T07:41:29.591Z,1.40
2023-02-20T07:43:58.316Z,0.95
2023-02-20T07:46:27.788Z,1.42
2023-02-20T07:48:55.936Z,1.52
2023-02-20T07:51:24.087Z,1.13
2023-02-20T07:53:54.981Z,1.00
2023-02-20T07:56:24.247Z,1.30
2023-02-20T07:58:52.618Z,1.25
2023-02-20T08:01:21.453Z,1.23
2023-02-20T08:03:50.987Z,1.48
2023-02-20T08:06:20.565Z,1.40
2023-02-20T08:08:50.365Z,1.23
2023-02-20T08:11:19.194Z,1.58
2023-02-20T08:13:47.432Z,1.40
2023-02-20T08:16:16.137Z,1.40
2023-02-20T08:18:44.388Z,0.85
2023-02-20T08:21:13.874Z,1.10
2023-02-20T08:23:42.064Z,1.13
2023-02-20T08:26:10.240Z,0.93
2023-02-20T08:28:38.416Z,0.98
2023-02-20T08:31:06.661Z,0.90
2023-02-20T08:33:34.792Z,1.02
2023-02-20T08:36:03.058Z,0.90
2023-02-20T08:38:35.401Z,0.80
2023-02-20T08:41:05.372Z,0.47
2023-02-20T08:43:33.682Z,0.75
2023-02-20T08:46:02.457Z,0.45
2023-02-20T08:48:30.732Z,0.52
2023-02-20T08:50:58.882Z,0.73
2023-02-20T08:53:26.981Z,0.63
2023-02-20T08:55:56.402Z,0.30
2023-02-20T08:58:26.463Z,0.50
2023-02-20T09:00:55.766Z,0.43
2023-02-20T09:03:24.555Z,0.55
2023-02-20T09:05:52.762Z,0.30
2023-02-20T09:08:20.919Z,0.28
2023-02-20T09:10:49.713Z,0.32
2023-02-20T09:13:19.370Z,0.40
2023-02-20T09:15:47.545Z,0.43
2023-02-20T09:18:16.161Z,0.38
2023-02-20T09:20:44.557Z,0.25
2023-02-20T09:23:13.046Z,0.40
2023-02-20T09:25:41.283Z,0.40
2023-02-20T09:28:09.841Z,0.85
2023-02-20T09:30:39.443Z,0.80
2023-02-20T09:33:07.640Z,0.20
2023-02-20T09:35:35.776Z,0.32
2023-02-20T09:38:04.189Z,0.43
2023-02-20T09:40:33.020Z,0.43
2023-02-20T09:43:15.255Z,0.20
2023-02-20T09:45:56.876Z,0.17
2023-02-20T09:48:38.081Z,0.30
2023-02-20T09:51:12.944Z,0.20
2023-02-20T09:53:51.316Z,0.20
2023-02-20T09:56:25.760Z,0.40
2023-02-20T09:59:00.674Z,0.20
2023-02-20T10:01:32.314Z,0.10
2023-02-20T10:04:03.653Z,0.20
2023-02-20T10:06:37.430Z,0.17
2023-02-20T10:09:15.104Z,0.10
2023-02-20T10:12:00.483Z,0.40
2023-02-20T10:14:52.076Z,1.25
2023-02-20T10:17:35.959Z,0.63
2023-02-20T10:20:15.944Z,0.35
2023-02-20T10:22:56.573Z,0.68
2023-02-20T10:25:32.014Z,0.73
2023-02-20T10:28:07.006Z,0.32
2023-02-20T10:30:36.653Z,0.45
2023-02-20T10:33:21.204Z,0.98
2023-02-20T10:35:54.467Z,0.63
2023-02-20T10:38:26.888Z,0.30
2023-02-20T10:41:04.948Z,0.50
2023-02-20T10:43:39.274Z,0.30
2023-02-20T10:46:14.806Z,0.25
2023-02-20T10:48:45.504Z,0.28
2023-02-20T10:51:17.997Z,0.35
2023-02-20T10:53:51.107Z,0.17
2023-02-20T10:56:26.029Z,0.30
2023-02-20T10:59:00.718Z,0.22
2023-02-20T11:01:29.667Z,0.30
2023-02-20T11:04:06.491Z,0.45
2023-02-20T11:06:39.694Z,0.20
2023-02-20T11:09:10.550Z,0.73
2023-02-20T11:11:42.184Z,0.30
2023-02-20T11:14:14.364Z,0.40
2023-02-20T11:16:48.452Z,0.30
2023-02-20T11:19:22.829Z,0.68
2023-02-20T11:21:52.501Z,0.20
2023-02-20T11:24:28.542Z,0.45
2023-02-20T11:27:00.940Z,0.52
2023-02-20T11:29:35.873Z,0.60
2023-02-20T11:32:26.533Z,0.50
2023-02-20T11:35:16.450Z,0.50
2023-02-20T11:37:54.392Z,0.30
2023-02-20T11:40:29.085Z,0.50
2023-02-20T11:42:57.244Z,0.40
2023-02-20T11:45:27.072Z,0.43
2023-02-20T11:48:10.646Z,0.63
2023-02-20T11:50:42.849Z,0.43
2023-02-20T11:53:20.993Z,0.52
2023-02-20T11:55:59.777Z,0.43
2023-02-20T11:58:30.402Z,0.63
2023-02-20T12:00:58.554Z,0.95
2023-02-20T12:03:29.530Z,0.80
2023-02-20T12:05:59.990Z,1.05
2023-02-20T12:08:45.433Z,0.38
2023-02-20T12:11:16.989Z,0.88
2023-02-20T12:13:48.511Z,0.57
2023-02-20T12:16:32.757Z,0.55
2023-02-20T12:19:11.530Z,0.55
2023-02-20T12:21:55.235Z,0.60
2023-02-20T12:24:47.566Z,0.43
2023-02-20T12:27:32.230Z,0.60
2023-02-20T12:30:08.074Z,0.50
2023-02-20T12:32:59.701Z,0.75
2023-02-20T12:35:32.092Z,1.15
2023-02-20T12:38:20.952Z,0.90
2023-02-20T12:41:10.606Z,0.93
2023-02-20T12:43:50.763Z,0.85
2023-02-20T12:46:24.869Z,1.05
2023-02-20T12:49:09.948Z,1.05
2023-02-20T12:51:45.360Z,1.30
2023-02-20T12:54:28.582Z,1.25
2023-02-20T12:57:08.462Z,1.52
2023-02-20T12:59:43.826Z,0.80
2023-02-20T13:02:32.584Z,1.08
2023-02-20T13:05:10.346Z,1.30
2023-02-20T13:07:43.836Z,1.25
2023-02-20T13:10:17.951Z,1.25
2023-02-20T13:12:46.133Z,1.17
2023-02-20T13:15:26.064Z,1.75
2023-02-20T13:18:01.103Z,1.15
2023-02-20T13:20:35.378Z,1.38
2023-02-20T13:23:05.950Z,1.08
2023-02-20T13:25:43.423Z,1.15
2023-02-20T13:28:37.501Z,0.80
2023-02-20T13:31:10.805Z,1.10
2023-02-20T13:33:40.019Z,1.23
2023-02-20T13:36:19.372Z,0.98
2023-02-20T13:39:26.470Z,1.00
2023-02-20T13:42:05.844Z,1.20
2023-02-20T13:44:42.934Z,0.77
2023-02-20T13:47:34.657Z,1.13
2023-02-20T13:50:03.242Z,1.02
2023-02-20T13:52:38.544Z,1.25
2023-02-20T13:55:19.088Z,1.25
2023-02-20T13:57:52.101Z,0.93
2023-02-20T14:00:27.551Z,1.10
2023-02-20T14:02:56.634Z,0.77
2023-02-20T14:05:27.532Z,1.17
2023-02-20T14:07:55.804Z,0.70
2023-02-20T14:10:28.359Z,0.95
2023-02-20T14:13:02.701Z,1.08
2023-02-20T14:15:33.929Z,0.65
2023-02-20T14:18:04.213Z,0.82
2023-02-20T14:20:36.738Z,0.52
2023-02-20T14:23:09.619Z,1.20
2023-02-20T14:25:38.512Z,0.83
2023-02-20T14:28:14.410Z,1.00
2023-02-20T14:30:43.146Z,1.02
2023-02-20T14:33:23.501Z,1.10
2023-02-20T14:36:08.575Z,1.00
2023-02-20T14:38:50.453Z,0.90
2023-02-20T14:41:21.405Z,0.93
2023-02-20T14:43:57.563Z,1.00
2023-02-20T14:46:28.346Z,0.80
2023-02-20T14:49:15.562Z,0.90
2023-02-20T14:51:44.236Z,1.08
2023-02-20T14:54:20.589Z,0.63
2023-02-20T14:56:49.946Z,1.30
2023-02-20T14:59:25.075Z,0.98
2023-02-20T15:01:55.304Z,0.75
2023-02-20T15:04:23.942Z,1.20
2023-02-20T15:06:54.532Z,1.20
2023-02-20T15:09:23.549Z,1.02
2023-02-20T15:11:55.390Z,1.02
2023-02-20T15:14:28.765Z,1.48
2023-02-20T15:17:08.932Z,0.90
2023-02-20T15:19:39.742Z,1.00
2023-02-20T15:22:25.783Z,0.75
2023-02-20T15:24:54.235Z,1.15
2023-02-20T15:27:24.693Z,1.00
2023-02-20T15:30:15.021Z,1.00
2023-02-20T15:32:44.641Z,0.98
2023-02-20T15:35:17.947Z,1.20
2023-02-20T15:38:07.661Z,0.80
2023-02-20T15:40:35.973Z,1.10
2023-02-20T15:43:18.753Z,1.10
2023-02-20T15:45:53.930Z,1.10
2023-02-20T15:48:22.814Z,1.50
2023-02-20T15:50:51.465Z,1.50
2023-02-20T15:53:22.599Z,1.63
2023-02-20T15:55:52.475Z,1.50
2023-02-20T15:58:29.651Z,1.67
2023-02-20T16:01:01.108Z,1.60
2023-02-20T16:03:33.885Z,1.50
2023-02-20T16:06:07.157Z,1.60
2023-02-20T16:08:35.276Z,1.70
2023-02-20T16:11:03.489Z,1.48
2023-02-20T16:13:36.531Z,1.40
2023-02-20T16:16:23.229Z,1.67
2023-02-20T16:18:55.273Z,1.30
2023-02-20T16:21:25.896Z,1.15
2023-02-20T16:23:54.936Z,1.13
2023-02-20T16:26:25.603Z,1.27
2023-02-20T16:28:59.036Z,1.10
2023-02-20T16:32:08.873Z,1.50
2023-02-20T16:34:38.415Z,1.60
2023-02-20T16:37:09.092Z,1.48
2023-02-20T16:39:37.265Z,1.25
2023-02-20T16:42:21.173Z,1.23
2023-02-20T16:47:31.792Z,1.98
2023-02-20T16:52:52.180Z,2.17
2023-02-20T16:55:23.457Z,2.05
2023-02-20T16:57:56.383Z,1.92
2023-02-20T17:00:26.875Z,8.68
2023-02-20T17:02:56.742Z,2.30
2023-02-20T17:05:28.654Z,2.05
2023-02-20T17:07:57.945Z,2.10
2023-02-20T17:10:26.775Z,2.45
2023-02-20T17:12:55.501Z,4.18
2023-02-20T17:15:24.813Z,2.97
2023-02-20T17:17:53.705Z,4.90
2023-02-20T17:20:25.392Z,3.13
2023-02-20T17:23:04.061Z,2.90
2023-02-20T17:25:34.589Z,2.30
2023-02-20T17:28:03.365Z,1.52
2023-02-20T17:30:31.579Z,1.52
2023-02-20T17:32:59.926Z,1.60
2023-02-20T17:35:29.368Z,2.30
2023-02-20T17:37:57.451Z,1.95
2023-02-20T17:40:26.172Z,1.98
2023-02-20T17:42:54.233Z,1.20
2023-02-20T17:45:22.359Z,1.23
2023-02-20T17:47:50.468Z,1.75
2023-02-20T17:50:19.007Z,1.58
2023-02-20T17:52:49.463Z,1.77
2023-02-20T17:55:19.793Z,1.48
2023-02-20T17:57:47.904Z,1.67
2023-02-20T18:00:17.453Z,1.58
2023-02-20T18:02:45.602Z,2.42
2023-02-20T18:05:14.058Z,1.98
2023-02-20T18:07:42.190Z,2.05
2023-02-20T18:10:11.739Z,1.70
2023-02-20T18:12:42.184Z,2.65
2023-02-20T18:15:11.161Z,2.10
2023-02-20T18:17:39.281Z,2.08
2023-02-20T18:20:07.892Z,2.50
2023-02-20T18:22:36.002Z,2.50
2023-02-20T18:25:04.120Z,1.65
2023-02-20T18:27:33.511Z,3.30
2023-02-20T18:30:01.670Z,3.20
2023-02-20T18:32:29.864Z,2.97
2023-02-20T18:34:58.129Z,2.42
2023-02-20T18:37:26.190Z,2.40
2023-02-20T18:39:54.311Z,2.70
2023-02-20T18:42:22.405Z,3.97
2023-02-20T18:44:52.176Z,2.90
2023-02-20T18:47:20.211Z,2.75
2023-02-20T18:49:49.270Z,2.47
2023-02-20T18:52:19.957Z,2.42
2023-02-20T18:54:48.411Z,3.10
2023-02-20T18:57:16.561Z,2.95
2023-02-20T18:59:45.890Z,3.35
2023-02-20T19:02:16.692Z,2.20
2023-02-20T19:04:44.900Z,3.72
2023-02-20T19:07:13.031Z,7.03
2023-02-20T19:09:41.201Z,3.40
2023-02-20T19:12:09.433Z,2.13
2023-02-20T19:14:38.015Z,2.35
2023-02-20T19:17:07.550Z,3.63
2023-02-20T19:19:37.078Z,2.40
2023-02-20T19:22:05.407Z,3.08
2023-02-20T19:24:33.561Z,2.90
2023-02-20T19:27:01.604Z,2.67
2023-02-20T19:29:29.682Z,2.20
2023-02-20T19:31:58.117Z,2.00
2023-02-20T19:34:26.300Z,2.08
2023-02-20T19:36:55.678Z,2.97
2023-02-20T19:39:24.421Z,2.17
2023-02-20T19:41:52.673Z,2.25
2023-02-20T19:44:23.565Z,2.53
2023-02-20T19:46:53.041Z,2.72
2023-02-20T19:49:21.830Z,1.55
2023-02-20T19:51:51.623Z,1.88
2023-02-20T19:54:23.255Z,1.88
2023-02-20T19:56:53.500Z,1.70
2023-02-20T19:59:21.674Z,1.77
2023-02-20T20:01:50.951Z,2.28
2023-02-20T20:04:19.521Z,1.83
2023-02-20T20:06:47.853Z,1.63
2023-02-20T20:09:26.877Z,1.73
2023-02-20T20:12:03.363Z,1.60
2023-02-20T20:14:31.518Z,1.83
2023-02-20T20:17:02.786Z,2.65
2023-02-20T20:19:31.411Z,3.33
2023-02-20T20:21:59.528Z,3.20
2023-02-20T20:24:27.772Z,2.70
2023-02-20T20:26:58.371Z,2.17
2023-02-20T20:29:28.573Z,1.73
2023-02-20T20:31:56.811Z,1.85
2023-02-20T20:34:27.642Z,1.73
2023-02-20T20:36:55.819Z,2.20
2023-02-20T20:39:23.987Z,1.77
2023-02-20T20:41:52.041Z,2.03
2023-02-20T20:44:23.763Z,1.40
2023-02-20T20:46:53.240Z,1.95
2023-02-20T20:49:21.489Z,1.75
2023-02-20T20:51:49.670Z,2.00
2023-02-20T20:54:17.862Z,2.33
2023-02-20T20:56:47.726Z,2.00
2023-02-20T20:59:17.638Z,1.98
2023-02-20T21:01:45.908Z,2.03
2023-02-20T21:04:15.771Z,2.10
2023-02-20T21:06:44.050Z,2.53
2023-02-20T21:09:12.130Z,2.78
2023-02-20T21:11:40.740Z,2.40
2023-02-20T21:14:09.280Z,4.13
2023-02-20T21:16:37.450Z,3.63
2023-02-20T21:19:05.614Z,2.42
2023-02-20T21:21:35.171Z,2.03
2023-02-20T21:24:03.288Z,2.35
2023-02-20T21:26:31.512Z,2.30
2023-02-20T21:28:59.651Z,2.42
2023-02-20T21:31:28.029Z,2.13
2023-02-20T21:33:57.058Z,2.50
2023-02-20T21:36:25.739Z,2.42
2023-02-20T21:38:55.180Z,1.83
2023-02-20T21:41:42.004Z,1.83
2023-02-20T21:44:34.719Z,1.95
2023-02-20T21:47:05.001Z,1.88
2023-02-20T21:49:35.118Z,1.80
2023-02-20T21:52:04.411Z,1.92
2023-02-20T21:54:34.474Z,2.13
2023-02-20T21:57:02.862Z,2.45
2023-02-20T21:59:30.031Z,3.08
2023-02-20T22:01:57.352Z,2.15
2023-02-20T22:04:25.151Z,2.53
2023-02-20T22:07:10.612Z,2.13
2023-02-20T22:09:57.231Z,2.88
2023-02-20T22:12:42.900Z,2.28
2023-02-20T22:15:31.194Z,2.38
2023-02-20T22:18:16.918Z,2.38
2023-02-20T22:21:02.562Z,2.60
2023-02-20T22:23:48.249Z,2.53
2023-02-20T22:26:36.398Z,2.20
2023-02-20T22:29:22.946Z,2.20
2023-02-20T22:32:08.726Z,2.33
2023-02-20T22:35:09.372Z,2.05
2023-02-20T22:37:57.141Z,2.03
2023-02-20T22:40:42.771Z,2.08
2023-02-20T22:43:29.405Z,2.17
2023-02-20T22:46:15.018Z,2.15
2023-02-20T22:49:00.523Z,2.53
2023-02-20T22:51:46.192Z,2.67
2023-02-20T22:54:31.992Z,2.53
2023-02-20T22:57:17.580Z,2.28
2023-02-20T23:00:04.879Z,2.50
2023-02-20T23:02:50.970Z,2.88
2023-02-20T23:05:36.539Z,2.28
2023-02-20T23:08:22.403Z,2.25
2023-02-20T23:11:07.881Z,2.38
2023-02-20T23:13:53.460Z,2.00
2023-02-20T23:16:41.682Z,2.00
2023-02-20T23:19:28.972Z,2.05
2023-02-20T23:22:14.709Z,1.77
2023-02-20T23:25:00.735Z,1.90
2023-02-20T23:27:46.812Z,2.00
2023-02-20T23:30:32.897Z,1.95
2023-02-20T23:33:20.081Z,1.55
2023-02-20T23:36:05.726Z,1.65
2023-02-20T23:38:51.453Z,2.03
2023-02-20T23:41:36.982Z,1.30
2023-02-20T23:44:24.626Z,1.65
2023-02-20T23:47:10.448Z,1.23
2023-02-20T23:49:57.592Z,1.95
2023-02-20T23:52:43.128Z,1.85
2023-02-20T23:55:28.821Z,1.60
2023-02-20T23:58:14.466Z,1.90
